createdAt,value
2018-12-13T00:00:18.175Z,67.24
2018-12-13T00:02:49.191Z,66.88
2018-12-13T00:05:18.572Z,67.11
2018-12-13T00:07:47.392Z,66.76
2018-12-13T00:10:17.025Z,66.73
2018-12-13T00:12:46.736Z,66.79
2018-12-13T00:15:17.826Z,66.73
2018-12-13T00:17:47.238Z,66.45
2018-12-13T00:20:16.363Z,67.06
2018-12-13T00:22:45.530Z,67.08
2018-12-13T00:25:15.124Z,67.28
2018-12-13T00:27:44.742Z,67.44
2018-12-13T00:30:13.928Z,67.32
2018-12-13T00:32:43.576Z,67.45
2018-12-13T00:37:48.055Z,67.28
2018-12-13T00:40:19.277Z,66.96
2018-12-13T00:42:48.291Z,67.22
2018-12-13T00:45:17.683Z,67.33
2018-12-13T00:47:46.890Z,67.32
2018-12-13T00:50:16.000Z,67.20
2018-12-13T00:52:45.410Z,66.96
2018-12-13T00:55:14.632Z,66.91
2018-12-13T00:57:45.752Z,67.18
2018-12-13T01:00:14.649Z,66.72
2018-12-13T01:02:45.743Z,67.13
2018-12-13T01:05:14.652Z,66.55
2018-12-13T01:07:47.842Z,67.32
2018-12-13T01:10:20.751Z,67.36
2018-12-13T01:12:50.170Z,67.36
2018-12-13T01:15:19.710Z,67.34
2018-12-13T01:17:48.532Z,66.92
2018-12-13T01:20:17.333Z,67.19
2018-12-13T01:22:46.557Z,67.58
2018-12-13T01:25:19.120Z,66.77
2018-12-13T01:27:48.075Z,67.59
2018-12-13T01:30:18.393Z,67.20
2018-12-13T01:32:47.417Z,67.52
2018-12-13T01:35:19.497Z,67.20
2018-12-13T01:37:49.151Z,67.39
2018-12-13T01:40:18.300Z,67.55
2018-12-13T01:42:47.288Z,67.39
2018-12-13T01:45:16.749Z,67.15
2018-12-13T01:47:45.601Z,67.35
2018-12-13T01:50:14.404Z,67.64
2018-12-13T01:52:47.152Z,67.34
2018-12-13T01:55:16.492Z,67.04
2018-12-13T01:57:45.346Z,67.53
2018-12-13T02:00:14.786Z,67.33
2018-12-13T02:02:43.794Z,68.11
2018-12-13T02:05:13.123Z,67.66
2018-12-13T02:07:42.352Z,67.55
2018-12-13T02:10:11.399Z,67.64
2018-12-13T02:12:40.768Z,67.88
2018-12-13T02:15:10.195Z,68.10
2018-12-13T02:17:39.342Z,67.66
2018-12-13T02:20:08.762Z,68.07
2018-12-13T02:22:41.709Z,68.88
2018-12-13T02:25:10.763Z,68.65
2018-12-13T02:27:40.215Z,68.87
2018-12-13T02:30:10.073Z,68.06
2018-12-13T02:32:39.322Z,68.25
2018-12-13T02:35:08.742Z,68.52
2018-12-13T02:37:37.964Z,67.30
2018-12-13T02:40:12.581Z,67.24
2018-12-13T02:42:41.558Z,67.39
2018-12-13T02:45:10.660Z,66.80
2018-12-13T02:47:39.892Z,67.57
2018-12-13T02:50:09.537Z,66.98
2018-12-13T02:52:38.819Z,66.86
2018-12-13T02:55:08.027Z,66.95
2018-12-13T02:57:37.557Z,67.36
2018-12-13T03:00:13.961Z,66.77
2018-12-13T03:02:42.954Z,67.31
2018-12-13T03:05:13.112Z,67.52
2018-12-13T03:07:47.276Z,68.14
2018-12-13T03:21:46.641Z,67.67
2018-12-13T03:24:16.868Z,67.90
2018-12-13T03:26:46.376Z,67.91
2018-12-13T03:29:15.253Z,67.82
2018-12-13T03:31:44.122Z,68.13
2018-12-13T03:34:13.111Z,67.88
2018-12-13T03:36:41.894Z,68.08
2018-12-13T03:39:10.715Z,68.58
2018-12-13T03:41:39.677Z,68.96
2018-12-13T03:44:08.323Z,68.79
2018-12-13T03:46:37.088Z,68.85
2018-12-13T03:49:06.229Z,69.09
2018-12-13T03:51:35.286Z,68.67
2018-12-13T03:54:04.954Z,69.46
2018-12-13T03:56:34.350Z,70.12
2018-12-13T03:59:03.530Z,70.09
2018-12-13T04:01:32.279Z,70.23
2018-12-13T04:04:01.782Z,69.94
2018-12-13T04:06:30.708Z,70.15
2018-12-13T04:08:59.507Z,70.57
2018-12-13T04:11:28.580Z,71.17
2018-12-13T04:13:57.974Z,70.72
2018-12-13T04:16:26.753Z,71.23
2018-12-13T04:18:55.796Z,71.43
2018-12-13T04:21:24.979Z,71.28
2018-12-13T04:23:53.901Z,71.60
2018-12-13T04:26:23.806Z,71.40
2018-12-13T04:28:53.217Z,71.07
2018-12-13T04:31:22.389Z,70.92
2018-12-13T04:33:52.011Z,71.66
2018-12-13T04:36:21.261Z,71.44
2018-12-13T04:38:50.262Z,71.14
2018-12-13T04:41:19.768Z,71.34
2018-12-13T04:43:48.515Z,72.05
2018-12-13T04:46:17.343Z,71.76
2018-12-13T04:48:46.966Z,71.86
2018-12-13T04:51:15.950Z,71.73
2018-12-13T04:53:44.838Z,71.73
2018-12-13T04:56:14.304Z,71.87
2018-12-13T04:58:43.129Z,72.03
2018-12-13T05:01:12.131Z,72.42
2018-12-13T05:03:42.534Z,72.95
2018-12-13T05:06:11.255Z,72.94
2018-12-13T05:08:40.169Z,73.26
2018-12-13T05:11:09.175Z,73.01
2018-12-13T05:13:37.951Z,72.90
2018-12-13T05:16:07.227Z,73.34
2018-12-13T05:18:36.247Z,73.62
2018-12-13T05:21:05.292Z,73.77
2018-12-13T05:23:34.407Z,73.32
2018-12-13T05:26:04.990Z,74.09
2018-12-13T05:28:34.120Z,73.73
2018-12-13T05:31:02.891Z,74.29
2018-12-13T05:33:32.339Z,73.54
2018-12-13T05:36:02.045Z,73.32
2018-12-13T05:38:30.991Z,73.35
2018-12-13T05:41:00.452Z,73.00
2018-12-13T05:43:29.021Z,73.25
2018-12-13T05:45:58.258Z,72.98
2018-12-13T05:48:27.620Z,73.20
2018-12-13T05:50:56.643Z,73.26
2018-12-13T05:53:25.821Z,73.55
2018-12-13T05:55:55.259Z,73.23
2018-12-13T05:58:24.220Z,73.19
2018-12-13T06:00:53.224Z,73.73
2018-12-13T06:03:22.886Z,73.30
2018-12-13T06:05:51.854Z,73.07
2018-12-13T06:08:20.806Z,73.37
2018-12-13T06:10:50.238Z,73.76
2018-12-13T06:13:19.384Z,73.51
2018-12-13T06:15:48.533Z,73.77
2018-12-13T06:18:17.685Z,73.84
2018-12-13T06:20:46.963Z,73.63
2018-12-13T06:23:16.106Z,73.40
2018-12-13T06:25:45.673Z,72.59
2018-12-13T06:28:14.834Z,72.92
2018-12-13T06:30:43.997Z,72.72
2018-12-13T06:33:13.583Z,72.57
2018-12-13T06:35:42.781Z,72.10
2018-12-13T06:38:11.630Z,71.60
2018-12-13T06:40:41.253Z,72.01
2018-12-13T06:43:10.609Z,71.89
2018-12-13T06:45:39.401Z,72.08
2018-12-13T06:48:08.556Z,71.56
2018-12-13T06:50:37.314Z,71.52
2018-12-13T06:53:06.579Z,71.31
2018-12-13T06:55:35.868Z,70.58
2018-12-13T06:58:05.572Z,70.74
2018-12-13T07:00:34.698Z,70.74
2018-12-13T07:03:03.862Z,70.11
2018-12-13T07:05:32.983Z,70.10
2018-12-13T07:08:07.796Z,70.71
2018-12-13T07:10:34.940Z,70.50
2018-12-13T07:13:03.743Z,70.32
2018-12-13T07:15:32.522Z,69.84
2018-12-13T07:18:03.013Z,69.84
2018-12-13T07:20:32.131Z,70.39
2018-12-13T07:23:01.244Z,70.48
2018-12-13T07:25:30.841Z,69.97
2018-12-13T07:27:59.775Z,69.93
2018-12-13T07:30:28.686Z,69.42
2018-12-13T07:32:58.316Z,69.45
2018-12-13T07:35:27.358Z,68.93
2018-12-13T07:37:56.613Z,68.94
2018-12-13T07:40:25.953Z,68.21
2018-12-13T07:42:55.170Z,67.70
2018-12-13T07:45:24.047Z,67.36
2018-12-13T07:47:53.455Z,66.42
2018-12-13T07:50:22.021Z,65.90
2018-12-13T07:52:50.923Z,65.60
2018-12-13T07:55:20.184Z,66.33
2018-12-13T07:57:48.959Z,66.56
2018-12-13T08:00:18.489Z,66.18
2018-12-13T08:02:47.593Z,66.35
2018-12-13T08:05:16.461Z,66.10
2018-12-13T08:07:45.758Z,66.02
2018-12-13T08:10:15.045Z,66.02
2018-12-13T08:12:44.428Z,66.07
2018-12-13T08:15:13.455Z,66.35
2018-12-13T08:17:42.421Z,65.67
2018-12-13T08:20:11.891Z,65.77
2018-12-13T08:22:40.711Z,66.26
2018-12-13T08:25:09.511Z,66.27
2018-12-13T08:27:38.924Z,65.94
2018-12-13T08:30:08.064Z,65.65
2018-12-13T08:32:36.964Z,65.79
2018-12-13T08:35:06.270Z,66.03
2018-12-13T08:37:34.855Z,65.80
2018-12-13T08:40:05.987Z,65.54
2018-12-13T08:42:35.012Z,66.59
2018-12-13T08:45:03.799Z,65.78
2018-12-13T08:47:32.922Z,65.47
2018-12-13T08:50:04.673Z,65.34
2018-12-13T08:52:33.717Z,65.49
2018-12-13T08:55:02.703Z,64.70
2018-12-13T08:57:32.510Z,64.98
2018-12-13T09:00:02.715Z,65.14
2018-12-13T09:02:32.173Z,64.52
2018-12-13T09:05:01.203Z,65.08
2018-12-13T09:07:30.161Z,64.40
2018-12-13T09:09:59.571Z,64.23
2018-12-13T09:12:28.608Z,63.74
2018-12-13T09:14:57.777Z,63.63
2018-12-13T09:17:27.328Z,64.18
2018-12-13T09:19:56.111Z,63.98
2018-12-13T09:22:24.647Z,63.47
2018-12-13T09:24:53.537Z,62.96
2018-12-13T09:27:22.243Z,62.63
2018-12-13T09:29:50.778Z,63.16
2018-12-13T09:32:19.575Z,63.01
2018-12-13T09:34:48.611Z,62.64
2018-12-13T09:37:17.156Z,62.47
2018-12-13T09:39:45.923Z,62.14
2018-12-13T09:42:14.460Z,61.64
2018-12-13T09:50:53.633Z,58.88
2018-12-13T09:53:22.367Z,58.02
2018-12-13T09:55:51.213Z,56.50
2018-12-13T09:58:50.138Z,55.47
2018-12-13T10:01:19.248Z,54.17
2018-12-13T10:03:47.795Z,51.60
2018-12-13T10:06:16.584Z,50.26
2018-12-13T10:08:46.401Z,47.95
2018-12-13T10:11:15.390Z,46.72
2018-12-13T10:13:44.257Z,45.47
2018-12-13T10:16:12.781Z,45.66
2018-12-13T10:18:41.333Z,45.54
2018-12-13T10:21:10.314Z,44.17
2018-12-13T10:23:38.837Z,44.33
2018-12-13T10:26:07.377Z,43.65
2018-12-13T10:28:36.177Z,43.26
2018-12-13T10:31:04.782Z,43.24
2018-12-13T10:33:33.357Z,42.48
2018-12-13T10:36:04.194Z,42.58
2018-12-13T10:38:32.826Z,42.63
2018-12-13T10:41:01.525Z,41.95
2018-12-13T10:43:31.399Z,42.26
2018-12-13T10:45:59.917Z,42.42
2018-12-13T10:48:29.203Z,42.07
2018-12-13T10:50:58.248Z,42.08
2018-12-13T10:53:27.223Z,42.33
2018-12-13T10:55:56.218Z,42.67
2018-12-13T10:58:25.040Z,42.98
2018-12-13T11:00:58.667Z,45.21
2018-12-13T11:03:37.670Z,46.07
2018-12-13T11:06:06.992Z,46.72
2018-12-13T11:08:35.834Z,47.94
2018-12-13T11:11:04.768Z,49.61
2018-12-13T11:13:33.723Z,50.32
2018-12-13T11:16:03.255Z,49.24
2018-12-13T11:18:31.871Z,50.36
2018-12-13T11:21:00.726Z,50.24
2018-12-13T11:23:29.233Z,50.66
2018-12-13T11:25:57.812Z,50.70
2018-12-13T11:28:39.639Z,51.29
2018-12-13T11:31:08.213Z,51.65
2018-12-13T11:33:38.132Z,51.71
2018-12-13T11:36:06.741Z,52.67
2018-12-13T11:38:35.295Z,51.47
2018-12-13T11:41:04.146Z,50.96
2018-12-13T11:43:32.704Z,51.72
2018-12-13T11:46:01.354Z,52.77
2018-12-13T11:48:30.207Z,52.24
2018-12-13T11:50:58.783Z,52.35
2018-12-13T11:53:27.353Z,53.01
2018-12-13T11:55:56.206Z,52.88
2018-12-13T11:58:24.779Z,53.92
2018-12-13T12:00:53.414Z,54.47
2018-12-13T12:03:22.303Z,53.54
2018-12-13T12:05:50.862Z,54.07
2018-12-13T12:08:19.418Z,54.58
2018-12-13T12:10:48.322Z,54.07
2018-12-13T12:13:16.932Z,54.66
2018-12-13T12:15:45.596Z,54.20
2018-12-13T12:18:14.414Z,53.60
2018-12-13T12:20:42.981Z,52.50
2018-12-13T12:23:11.502Z,52.20
2018-12-13T12:25:40.319Z,51.71
2018-12-13T12:28:08.889Z,51.28
2018-12-13T12:30:37.488Z,51.91
2018-12-13T12:33:06.329Z,52.74
2018-12-13T12:35:35.189Z,52.44
2018-12-13T12:38:04.524Z,51.54
2018-12-13T12:40:33.480Z,51.74
2018-12-13T12:43:02.071Z,51.89
2018-12-13T12:45:30.595Z,51.42
2018-12-13T12:47:59.574Z,51.31
2018-12-13T12:50:28.154Z,51.00
2018-12-13T12:52:56.727Z,51.52
2018-12-13T12:55:25.672Z,51.54
2018-12-13T12:57:54.263Z,51.42
2018-12-13T13:00:22.820Z,51.02
2018-12-13T13:02:51.976Z,50.67
2018-12-13T13:05:20.505Z,51.56
2018-12-13T13:10:13.804Z,52.79
2018-12-13T13:12:42.321Z,52.84
2018-12-13T13:15:11.162Z,53.30
2018-12-13T13:17:39.758Z,53.37
2018-12-13T13:20:08.423Z,53.36
2018-12-13T13:22:37.326Z,53.45
2018-12-13T13:25:06.006Z,53.16
2018-12-13T13:27:34.532Z,52.71
2018-12-13T13:30:04.106Z,52.56
2018-12-13T13:32:32.666Z,52.68
2018-12-13T13:35:01.249Z,52.30
2018-12-13T13:37:30.113Z,52.47
2018-12-13T13:39:58.707Z,52.68
2018-12-13T13:42:27.285Z,53.62
2018-12-13T13:45:02.119Z,52.86
2018-12-13T13:47:30.688Z,52.84
2018-12-13T13:49:59.347Z,52.61
2018-12-13T13:52:28.248Z,52.98
2018-12-13T13:54:56.858Z,52.58
2018-12-13T13:57:25.365Z,52.37
2018-12-13T13:59:54.337Z,52.75
2018-12-13T14:02:22.926Z,53.14
2018-12-13T14:04:51.501Z,53.17
2018-12-13T14:07:20.914Z,53.23
2018-12-13T14:09:49.434Z,53.41
2018-12-13T14:12:17.917Z,53.50
2018-12-13T14:14:46.772Z,53.40
2018-12-13T14:17:15.321Z,53.95
2018-12-13T14:19:43.877Z,54.30
2018-12-13T14:22:12.667Z,54.19
2018-12-13T14:24:41.182Z,54.13
2018-12-13T14:27:09.822Z,53.93
2018-12-13T14:29:38.620Z,54.04
2018-12-13T14:32:07.275Z,53.91
2018-12-13T14:34:35.812Z,54.50
2018-12-13T14:37:04.653Z,54.32
2018-12-13T14:39:33.212Z,54.72
2018-12-13T14:42:01.749Z,54.45
2018-12-13T14:44:30.625Z,54.54
2018-12-13T14:46:59.227Z,54.59
2018-12-13T14:49:27.750Z,54.49
2018-12-13T14:51:56.617Z,54.97
2018-12-13T14:54:25.165Z,55.04
2018-12-13T14:56:53.653Z,55.39
2018-12-13T14:59:22.455Z,55.73
2018-12-13T15:01:51.041Z,55.61
2018-12-13T15:04:19.563Z,55.60
2018-12-13T15:06:48.392Z,55.87
2018-12-13T15:09:16.945Z,55.94
2018-12-13T15:11:45.490Z,55.76
2018-12-13T15:14:14.339Z,55.40
2018-12-13T15:16:43.251Z,55.91
2018-12-13T15:19:11.798Z,56.30
2018-12-13T15:21:40.625Z,56.06
2018-12-13T15:24:09.231Z,56.30
2018-12-13T15:26:37.829Z,56.40
2018-12-13T15:29:07.167Z,56.58
2018-12-13T15:31:35.758Z,55.83
2018-12-13T15:34:05.017Z,55.69
2018-12-13T15:36:33.785Z,55.97
2018-12-13T15:39:02.481Z,55.88
2018-12-13T15:41:31.135Z,56.18
2018-12-13T15:44:00.179Z,56.49
2018-12-13T15:46:28.709Z,56.13
2018-12-13T15:48:57.389Z,55.94
2018-12-13T15:51:26.216Z,54.88
2018-12-13T15:53:54.779Z,55.50
2018-12-13T15:56:23.333Z,55.80
2018-12-13T15:58:52.166Z,55.79
2018-12-13T16:01:20.710Z,56.07
2018-12-13T16:03:49.461Z,55.55
2018-12-13T16:06:18.858Z,54.98
2018-12-13T16:08:47.454Z,55.05
2018-12-13T16:11:16.064Z,55.06
2018-12-13T16:13:45.148Z,55.05
2018-12-13T16:16:13.751Z,54.77
2018-12-13T16:18:42.342Z,54.99
2018-12-13T16:21:11.209Z,54.97
2018-12-13T16:23:39.792Z,54.75
2018-12-13T16:26:08.386Z,54.59
2018-12-13T16:28:37.271Z,54.38
2018-12-13T16:31:05.901Z,54.65
2018-12-13T16:33:34.454Z,54.94
2018-12-13T16:36:05.292Z,54.72
2018-12-13T16:38:33.882Z,55.06
2018-12-13T16:41:02.513Z,54.91
2018-12-13T16:43:31.427Z,54.48
2018-12-13T16:45:59.946Z,54.56
2018-12-13T16:48:28.487Z,54.56
2018-12-13T16:50:57.510Z,54.47
2018-12-13T16:53:26.017Z,54.68
2018-12-13T16:55:54.530Z,54.34
2018-12-13T16:58:23.660Z,53.98
2018-12-13T17:00:52.574Z,54.49
2018-12-13T17:03:32.322Z,55.03
2018-12-13T17:06:04.045Z,54.59
2018-12-13T17:08:32.757Z,54.65
2018-12-13T17:11:01.526Z,54.97
2018-12-13T17:13:30.395Z,54.96
2018-12-13T17:15:58.921Z,55.03
2018-12-13T17:18:27.508Z,54.99
2018-12-13T17:20:56.526Z,54.67
2018-12-13T17:23:25.070Z,54.38
2018-12-13T17:25:53.640Z,54.45
2018-12-13T17:28:22.709Z,54.25
2018-12-13T17:30:51.286Z,54.74
2018-12-13T17:33:19.923Z,54.49
2018-12-13T17:35:48.787Z,54.97
2018-12-13T17:38:17.365Z,54.29
2018-12-13T17:40:45.902Z,54.46
2018-12-13T17:43:19.246Z,54.54
2018-12-13T17:45:48.112Z,54.08
2018-12-13T17:48:16.709Z,54.21
2018-12-13T17:50:45.563Z,54.34
2018-12-13T17:53:14.168Z,54.47
2018-12-13T17:55:42.806Z,54.62
2018-12-13T17:58:11.679Z,54.68
2018-12-13T18:00:40.275Z,54.83
2018-12-13T18:03:09.628Z,54.48
2018-12-13T18:05:38.494Z,54.83
2018-12-13T18:08:08.206Z,54.17
2018-12-13T18:10:36.918Z,54.47
2018-12-13T18:13:05.937Z,54.00
2018-12-13T18:15:34.500Z,54.41
2018-12-13T18:18:03.377Z,54.99
2018-12-13T18:20:32.358Z,54.65
2018-12-13T18:23:01.062Z,54.66
2018-12-13T18:25:30.402Z,54.19
2018-12-13T18:27:59.618Z,54.18
2018-12-13T18:30:28.245Z,54.64
2018-12-13T18:32:56.942Z,54.79
2018-12-13T18:35:25.894Z,55.13
2018-12-13T18:37:55.783Z,54.98
2018-12-13T18:40:24.400Z,54.73
2018-12-13T18:42:53.621Z,55.09
2018-12-13T18:45:24.172Z,55.57
2018-12-13T18:47:52.988Z,55.62
2018-12-13T18:50:21.902Z,55.52
2018-12-13T18:52:51.875Z,55.39
2018-12-13T18:55:20.477Z,55.43
2018-12-13T18:57:49.315Z,55.33
2018-12-13T19:00:19.049Z,55.47
2018-12-13T19:02:47.912Z,55.34
2018-12-13T19:05:16.708Z,55.35
2018-12-13T19:07:45.605Z,55.36
2018-12-13T19:10:19.368Z,54.94
2018-12-13T19:13:02.926Z,55.57
2018-12-13T19:15:42.523Z,55.46
2018-12-13T19:18:12.043Z,55.67
2018-12-13T19:20:54.641Z,55.46
2018-12-13T19:23:31.310Z,55.89
2018-12-13T19:26:04.429Z,55.15
2018-12-13T19:28:33.704Z,54.90
2018-12-13T19:31:03.529Z,54.60
2018-12-13T19:33:32.877Z,54.25
2018-12-13T19:36:03.052Z,53.11
2018-12-13T19:38:32.943Z,53.57
2018-12-13T19:41:03.568Z,53.94
2018-12-13T19:43:32.583Z,54.02
2018-12-13T19:46:03.113Z,54.15
2018-12-13T19:48:32.160Z,54.28
2018-12-13T19:51:01.054Z,55.00
2018-12-13T19:53:31.264Z,55.05
2018-12-13T19:56:00.220Z,54.92
2018-12-13T19:58:30.774Z,55.68
2018-12-13T20:00:59.681Z,55.83
2018-12-13T20:03:28.300Z,55.88
2018-12-13T20:05:59.646Z,56.07
2018-12-13T20:08:30.230Z,56.16
2018-12-13T20:11:00.471Z,55.65
2018-12-13T21:56:55.728Z,54.48
2018-12-13T21:59:24.715Z,54.62
2018-12-13T22:01:59.001Z,54.82
2018-12-13T22:04:27.977Z,54.89
2018-12-13T22:06:57.447Z,54.79
2018-12-13T22:09:27.244Z,54.78
2018-12-13T22:11:56.455Z,54.60
2018-12-13T22:14:25.865Z,54.51
2018-12-13T22:16:57.237Z,54.80
2018-12-13T22:19:26.894Z,54.80
2018-12-13T22:21:59.845Z,54.75
2018-12-13T22:24:29.550Z,54.23
2018-12-13T22:27:04.852Z,54.30
2018-12-13T22:29:35.520Z,54.51
2018-12-13T22:32:07.902Z,54.18
2018-12-13T22:34:37.860Z,54.50
2018-12-13T22:37:07.747Z,54.04
2018-12-13T22:39:39.061Z,54.80
2018-12-13T22:42:08.542Z,55.30
2018-12-13T22:44:37.877Z,54.88
2018-12-13T22:47:11.616Z,54.98
2018-12-13T22:49:41.035Z,55.10
2018-12-13T22:52:10.617Z,55.28
2018-12-13T22:54:40.423Z,54.85
2018-12-13T22:57:09.793Z,55.03
2018-12-13T22:59:39.210Z,55.23
2018-12-13T23:02:10.764Z,54.61
2018-12-13T23:04:40.309Z,55.02
2018-12-13T23:07:09.860Z,54.83
2018-12-13T23:09:39.742Z,54.92
2018-12-13T23:12:08.952Z,54.66
2018-12-13T23:14:38.547Z,55.05
2018-12-13T23:17:09.064Z,55.48
2018-12-13T23:19:38.452Z,54.80
2018-12-13T23:22:07.923Z,55.17
2018-12-13T23:24:37.807Z,55.22
2018-12-13T23:27:07.318Z,54.86
2018-12-13T23:29:36.444Z,55.94
2018-12-13T23:32:11.008Z,55.66
2018-12-13T23:34:40.560Z,55.45
2018-12-13T23:37:10.153Z,55.38
2018-12-13T23:39:42.703Z,55.39
2018-12-13T23:42:11.911Z,55.69
2018-12-13T23:44:41.865Z,54.94
2018-12-13T23:47:11.460Z,55.22
2018-12-13T23:49:40.515Z,54.99
2018-12-13T23:52:09.871Z,55.62
2018-12-13T23:54:39.594Z,54.81
2018-12-13T23:57:08.765Z,54.73
2018-12-13T23:59:38.707Z,54.77
